sensor_id;sensor_type;location;lat;lon;timestamp;P1;durP1;ratioP1;P2;durP2;ratioP2
10904;SDS011;5505;51.450;9.254;2023-01-01T00:01:46;4.63;;;2.13;;
10904;SDS011;5505;51.450;9.254;2023-01-01T00:04:32;4.53;;;1.63;;
10904;SDS011;5505;51.450;9.254;2023-01-01T00:07:19;4.83;;;1.63;;
10904;SDS011;5505;51.450;9.254;2023-01-01T00:10:08;2.20;;;1.30;;
10904;SDS011;5505;51.450;9.254;2023-01-01T00:13:14;4.60;;;1.70;;
10904;SDS011;5505;51.450;9.254;2023-01-01T00:16:04;3.40;;;1.60;;
10904;SDS011;5505;51.450;9.254;2023-01-01T00:18:51;3.73;;;1.77;;
10904;SDS011;5505;51.450;9.254;2023-01-01T00:21:38;8.20;;;2.00;;
10904;SDS011;5505;51.450;9.254;2023-01-01T00:24:25;3.67;;;1.90;;
10904;SDS011;5505;51.450;9.254;2023-01-01T00:27:12;5.40;;;1.80;;
10904;SDS011;5505;51.450;9.254;2023-01-01T00:30:00;5.33;;;2.10;;
10904;SDS011;5505;51.450;9.254;2023-01-01T00:32:48;5.07;;;2.00;;
10904;SDS011;5505;51.450;9.254;2023-01-01T00:35:34;6.20;;;2.33;;
10904;SDS011;5505;51.450;9.254;2023-01-01T00:38:21;5.20;;;2.40;;
10904;SDS011;5505;51.450;9.254;2023-01-01T00:41:08;3.70;;;2.20;;
10904;SDS011;5505;51.450;9.254;2023-01-01T00:43:55;3.93;;;2.13;;
10904;SDS011;5505;51.450;9.254;2023-01-01T00:46:43;4.87;;;2.43;;
10904;SDS011;5505;51.450;9.254;2023-01-01T00:49:30;5.53;;;2.50;;
10904;SDS011;5505;51.450;9.254;2023-01-01T00:52:17;5.97;;;2.23;;
10904;SDS011;5505;51.450;9.254;2023-01-01T00:55:04;4.37;;;2.10;;
10904;SDS011;5505;51.450;9.254;2023-01-01T00:57:51;5.03;;;2.80;;
10904;SDS011;5505;51.450;9.254;2023-01-01T01:00:38;6.87;;;2.70;;
10904;SDS011;5505;51.450;9.254;2023-01-01T01:03:26;7.93;;;3.13;;
10904;SDS011;5505;51.450;9.254;2023-01-01T01:06:14;6.47;;;2.43;;
10904;SDS011;5505;51.450;9.254;2023-01-01T01:09:02;8.67;;;2.70;;
10904;SDS011;5505;51.450;9.254;2023-01-01T01:11:50;5.03;;;2.63;;
10904;SDS011;5505;51.450;9.254;2023-01-01T01:14:37;6.20;;;2.40;;
10904;SDS011;5505;51.450;9.254;2023-01-01T01:17:24;5.43;;;2.60;;
10904;SDS011;5505;51.450;9.254;2023-01-01T01:20:12;4.87;;;2.60;;
10904;SDS011;5505;51.450;9.254;2023-01-01T01:22:59;6.17;;;2.50;;
10904;SDS011;5505;51.450;9.254;2023-01-01T01:25:46;4.83;;;2.53;;
10904;SDS011;5505;51.450;9.254;2023-01-01T01:28:33;4.23;;;2.37;;
10904;SDS011;5505;51.450;9.254;2023-01-01T01:31:20;4.13;;;2.30;;
10904;SDS011;5505;51.450;9.254;2023-01-01T01:34:08;4.30;;;2.47;;
10904;SDS011;5505;51.450;9.254;2023-01-01T01:36:56;5.93;;;2.60;;
10904;SDS011;5505;51.450;9.254;2023-01-01T01:39:43;7.03;;;2.70;;
10904;SDS011;5505;51.450;9.254;2023-01-01T01:42:30;5.37;;;2.50;;
10904;SDS011;5505;51.450;9.254;2023-01-01T01:45:17;4.53;;;2.33;;
10904;SDS011;5505;51.450;9.254;2023-01-01T01:48:04;6.77;;;2.73;;
10904;SDS011;5505;51.450;9.254;2023-01-01T01:50:52;7.83;;;2.70;;
10904;SDS011;5505;51.450;9.254;2023-01-01T01:53:42;4.70;;;2.53;;
10904;SDS011;5505;51.450;9.254;2023-01-01T01:56:36;5.47;;;2.70;;
10904;SDS011;5505;51.450;9.254;2023-01-01T01:59:29;6.13;;;2.97;;
10904;SDS011;5505;51.450;9.254;2023-01-01T02:02:19;5.17;;;2.80;;
10904;SDS011;5505;51.450;9.254;2023-01-01T02:05:12;4.10;;;2.60;;
10904;SDS011;5505;51.450;9.254;2023-01-01T02:07:58;4.97;;;2.70;;
10904;SDS011;5505;51.450;9.254;2023-01-01T02:10:49;5.43;;;2.10;;
10904;SDS011;5505;51.450;9.254;2023-01-01T02:13:35;6.10;;;2.90;;
10904;SDS011;5505;51.450;9.254;2023-01-01T02:16:23;5.53;;;2.80;;
10904;SDS011;5505;51.450;9.254;2023-01-01T02:19:22;6.60;;;2.87;;
10904;SDS011;5505;51.450;9.254;2023-01-01T02:22:23;6.00;;;3.40;;
10904;SDS011;5505;51.450;9.254;2023-01-01T02:25:16;7.90;;;2.97;;
10904;SDS011;5505;51.450;9.254;2023-01-01T02:28:13;5.47;;;3.07;;
10904;SDS011;5505;51.450;9.254;2023-01-01T02:31:09;5.27;;;3.00;;
10904;SDS011;5505;51.450;9.254;2023-01-01T02:34:00;4.90;;;2.50;;
10904;SDS011;5505;51.450;9.254;2023-01-01T02:36:50;4.83;;;2.50;;
10904;SDS011;5505;51.450;9.254;2023-01-01T02:39:41;6.23;;;2.47;;
10904;SDS011;5505;51.450;9.254;2023-01-01T02:42:32;3.43;;;2.10;;
10904;SDS011;5505;51.450;9.254;2023-01-01T02:45:20;3.83;;;1.70;;
10904;SDS011;5505;51.450;9.254;2023-01-01T02:51:30;3.37;;;1.93;;
10904;SDS011;5505;51.450;9.254;2023-01-01T02:54:29;5.07;;;2.10;;
10904;SDS011;5505;51.450;9.254;2023-01-01T02:57:23;4.80;;;1.80;;
10904;SDS011;5505;51.450;9.254;2023-01-01T03:00:17;4.50;;;2.30;;
10904;SDS011;5505;51.450;9.254;2023-01-01T03:03:06;4.50;;;1.90;;
10904;SDS011;5505;51.450;9.254;2023-01-01T03:06:03;3.73;;;2.23;;
10904;SDS011;5505;51.450;9.254;2023-01-01T03:09:11;5.57;;;2.00;;
10904;SDS011;5505;51.450;9.254;2023-01-01T03:12:05;4.40;;;2.43;;
10904;SDS011;5505;51.450;9.254;2023-01-01T03:14:56;3.90;;;1.97;;
10904;SDS011;5505;51.450;9.254;2023-01-01T03:17:48;4.20;;;2.20;;
10904;SDS011;5505;51.450;9.254;2023-01-01T03:20:40;4.17;;;2.10;;
10904;SDS011;5505;51.450;9.254;2023-01-01T03:23:32;3.17;;;2.03;;
10904;SDS011;5505;51.450;9.254;2023-01-01T03:26:23;3.50;;;2.07;;
10904;SDS011;5505;51.450;9.254;2023-01-01T03:29:11;4.67;;;2.10;;
10904;SDS011;5505;51.450;9.254;2023-01-01T03:31:59;3.20;;;2.03;;
10904;SDS011;5505;51.450;9.254;2023-01-01T03:34:48;3.17;;;2.10;;
10904;SDS011;5505;51.450;9.254;2023-01-01T03:37:38;4.93;;;2.53;;
10904;SDS011;5505;51.450;9.254;2023-01-01T03:40:27;5.10;;;2.37;;
10904;SDS011;5505;51.450;9.254;2023-01-01T03:43:20;3.53;;;2.60;;
10904;SDS011;5505;51.450;9.254;2023-01-01T03:46:15;4.07;;;2.00;;
10904;SDS011;5505;51.450;9.254;2023-01-01T03:49:09;3.43;;;2.13;;
10904;SDS011;5505;51.450;9.254;2023-01-01T03:52:04;4.63;;;2.30;;
10904;SDS011;5505;51.450;9.254;2023-01-01T03:55:01;4.33;;;2.10;;
10904;SDS011;5505;51.450;9.254;2023-01-01T03:57:54;4.30;;;1.67;;
10904;SDS011;5505;51.450;9.254;2023-01-01T04:00:47;4.93;;;2.00;;
10904;SDS011;5505;51.450;9.254;2023-01-01T04:03:36;5.77;;;1.97;;
10904;SDS011;5505;51.450;9.254;2023-01-01T04:06:23;4.10;;;1.87;;
10904;SDS011;5505;51.450;9.254;2023-01-01T04:09:12;4.13;;;1.90;;
10904;SDS011;5505;51.450;9.254;2023-01-01T04:12:05;6.30;;;2.40;;
10904;SDS011;5505;51.450;9.254;2023-01-01T04:14:52;3.60;;;2.00;;
10904;SDS011;5505;51.450;9.254;2023-01-01T04:17:40;5.27;;;2.30;;
10904;SDS011;5505;51.450;9.254;2023-01-01T04:20:27;4.37;;;1.63;;
10904;SDS011;5505;51.450;9.254;2023-01-01T04:23:14;3.53;;;1.60;;
10904;SDS011;5505;51.450;9.254;2023-01-01T04:26:00;5.80;;;2.00;;
10904;SDS011;5505;51.450;9.254;2023-01-01T04:28:47;3.27;;;1.60;;
10904;SDS011;5505;51.450;9.254;2023-01-01T04:31:34;3.17;;;1.80;;
10904;SDS011;5505;51.450;9.254;2023-01-01T04:34:22;4.37;;;1.70;;
10904;SDS011;5505;51.450;9.254;2023-01-01T04:37:10;2.47;;;1.77;;
10904;SDS011;5505;51.450;9.254;2023-01-01T04:39:56;4.57;;;2.00;;
10904;SDS011;5505;51.450;9.254;2023-01-01T04:42:43;1.93;;;1.40;;
10904;SDS011;5505;51.450;9.254;2023-01-01T04:45:30;4.07;;;2.10;;
10904;SDS011;5505;51.450;9.254;2023-01-01T04:48:17;5.53;;;2.00;;
10904;SDS011;5505;51.450;9.254;2023-01-01T04:51:05;5.37;;;2.00;;
10904;SDS011;5505;51.450;9.254;2023-01-01T04:53:52;3.73;;;1.83;;
10904;SDS011;5505;51.450;9.254;2023-01-01T04:56:38;3.77;;;1.80;;
10904;SDS011;5505;51.450;9.254;2023-01-01T04:59:25;2.80;;;1.90;;
10904;SDS011;5505;51.450;9.254;2023-01-01T05:02:13;4.20;;;1.87;;
10904;SDS011;5505;51.450;9.254;2023-01-01T05:05:00;2.90;;;1.67;;
10904;SDS011;5505;51.450;9.254;2023-01-01T05:07:48;5.50;;;1.67;;
10904;SDS011;5505;51.450;9.254;2023-01-01T05:10:35;3.97;;;1.67;;
10904;SDS011;5505;51.450;9.254;2023-01-01T05:13:22;3.03;;;1.80;;
10904;SDS011;5505;51.450;9.254;2023-01-01T05:16:09;3.23;;;1.60;;
10904;SDS011;5505;51.450;9.254;2023-01-01T05:18:57;4.63;;;1.80;;
10904;SDS011;5505;51.450;9.254;2023-01-01T05:21:44;3.13;;;1.80;;
10904;SDS011;5505;51.450;9.254;2023-01-01T05:24:32;3.73;;;1.90;;
10904;SDS011;5505;51.450;9.254;2023-01-01T05:27:20;5.03;;;1.87;;
10904;SDS011;5505;51.450;9.254;2023-01-01T05:30:07;3.10;;;1.93;;
10904;SDS011;5505;51.450;9.254;2023-01-01T05:32:54;3.93;;;2.10;;
10904;SDS011;5505;51.450;9.254;2023-01-01T05:35:41;6.17;;;1.70;;
10904;SDS011;5505;51.450;9.254;2023-01-01T05:38:28;2.43;;;1.77;;
10904;SDS011;5505;51.450;9.254;2023-01-01T05:41:17;2.77;;;1.70;;
10904;SDS011;5505;51.450;9.254;2023-01-01T05:44:05;3.77;;;1.70;;
10904;SDS011;5505;51.450;9.254;2023-01-01T05:46:52;3.13;;;1.80;;
10904;SDS011;5505;51.450;9.254;2023-01-01T05:49:39;4.97;;;1.70;;
10904;SDS011;5505;51.450;9.254;2023-01-01T05:52:26;3.20;;;1.90;;
10904;SDS011;5505;51.450;9.254;2023-01-01T05:55:13;3.13;;;1.80;;
10904;SDS011;5505;51.450;9.254;2023-01-01T05:58:01;2.87;;;2.10;;
10904;SDS011;5505;51.450;9.254;2023-01-01T06:00:48;4.60;;;2.10;;
10904;SDS011;5505;51.450;9.254;2023-01-01T06:03:34;2.83;;;1.80;;
10904;SDS011;5505;51.450;9.254;2023-01-01T06:06:22;3.00;;;1.60;;
10904;SDS011;5505;51.450;9.254;2023-01-01T06:09:10;3.00;;;1.93;;
10904;SDS011;5505;51.450;9.254;2023-01-01T06:11:57;3.90;;;1.70;;
10904;SDS011;5505;51.450;9.254;2023-01-01T06:14:45;5.67;;;2.27;;
10904;SDS011;5505;51.450;9.254;2023-01-01T06:17:32;2.50;;;2.20;;
10904;SDS011;5505;51.450;9.254;2023-01-01T06:20:18;3.07;;;1.73;;
10904;SDS011;5505;51.450;9.254;2023-01-01T06:23:05;2.33;;;1.87;;
10904;SDS011;5505;51.450;9.254;2023-01-01T06:25:52;2.23;;;2.00;;
10904;SDS011;5505;51.450;9.254;2023-01-01T06:28:39;3.03;;;1.77;;
10904;SDS011;5505;51.450;9.254;2023-01-01T06:31:28;5.97;;;2.13;;
10904;SDS011;5505;51.450;9.254;2023-01-01T06:34:15;3.20;;;2.00;;
10904;SDS011;5505;51.450;9.254;2023-01-01T06:37:01;3.83;;;2.30;;
10904;SDS011;5505;51.450;9.254;2023-01-01T06:39:48;5.90;;;2.30;;
10904;SDS011;5505;51.450;9.254;2023-01-01T06:42:35;4.30;;;2.13;;
10904;SDS011;5505;51.450;9.254;2023-01-01T06:45:22;2.90;;;2.20;;
10904;SDS011;5505;51.450;9.254;2023-01-01T06:48:10;4.03;;;2.30;;
10904;SDS011;5505;51.450;9.254;2023-01-01T06:50:57;4.40;;;2.13;;
10904;SDS011;5505;51.450;9.254;2023-01-01T06:53:44;3.23;;;2.03;;
10904;SDS011;5505;51.450;9.254;2023-01-01T06:56:31;3.47;;;2.30;;
10904;SDS011;5505;51.450;9.254;2023-01-01T06:59:18;2.80;;;2.30;;
10904;SDS011;5505;51.450;9.254;2023-01-01T07:02:06;3.77;;;2.47;;
10904;SDS011;5505;51.450;9.254;2023-01-01T07:04:57;5.07;;;2.43;;
10904;SDS011;5505;51.450;9.254;2023-01-01T07:07:43;3.33;;;2.27;;
10904;SDS011;5505;51.450;9.254;2023-01-01T07:10:30;4.70;;;2.47;;
10904;SDS011;5505;51.450;9.254;2023-01-01T07:13:17;4.00;;;2.30;;
10904;SDS011;5505;51.450;9.254;2023-01-01T07:16:04;5.83;;;2.67;;
10904;SDS011;5505;51.450;9.254;2023-01-01T07:18:51;4.17;;;2.53;;
10904;SDS011;5505;51.450;9.254;2023-01-01T07:21:40;3.87;;;2.73;;
10904;SDS011;5505;51.450;9.254;2023-01-01T07:24:29;5.27;;;2.90;;
10904;SDS011;5505;51.450;9.254;2023-01-01T07:27:15;3.30;;;2.73;;
10904;SDS011;5505;51.450;9.254;2023-01-01T07:30:02;3.60;;;2.63;;
10904;SDS011;5505;51.450;9.254;2023-01-01T07:32:53;4.13;;;2.80;;
10904;SDS011;5505;51.450;9.254;2023-01-01T07:35:40;4.97;;;2.97;;
10904;SDS011;5505;51.450;9.254;2023-01-01T07:38:30;6.07;;;2.70;;
10904;SDS011;5505;51.450;9.254;2023-01-01T07:41:16;5.23;;;2.67;;
10904;SDS011;5505;51.450;9.254;2023-01-01T07:44:03;4.40;;;2.70;;
10904;SDS011;5505;51.450;9.254;2023-01-01T07:46:51;5.23;;;2.90;;
10904;SDS011;5505;51.450;9.254;2023-01-01T07:49:47;3.17;;;2.40;;
10904;SDS011;5505;51.450;9.254;2023-01-01T07:52:33;4.13;;;3.00;;
10904;SDS011;5505;51.450;9.254;2023-01-01T07:55:22;7.90;;;3.30;;
10904;SDS011;5505;51.450;9.254;2023-01-01T07:58:09;3.67;;;2.70;;
10904;SDS011;5505;51.450;9.254;2023-01-01T08:00:57;4.73;;;2.87;;
10904;SDS011;5505;51.450;9.254;2023-01-01T08:03:44;4.27;;;2.50;;
10904;SDS011;5505;51.450;9.254;2023-01-01T08:06:36;2.90;;;2.50;;
10904;SDS011;5505;51.450;9.254;2023-01-01T08:09:22;3.90;;;2.70;;
10904;SDS011;5505;51.450;9.254;2023-01-01T08:12:11;4.20;;;2.80;;
10904;SDS011;5505;51.450;9.254;2023-01-01T08:14:57;5.37;;;3.30;;
10904;SDS011;5505;51.450;9.254;2023-01-01T08:17:44;3.60;;;2.53;;
10904;SDS011;5505;51.450;9.254;2023-01-01T08:20:31;3.93;;;3.07;;
10904;SDS011;5505;51.450;9.254;2023-01-01T08:23:18;4.40;;;2.73;;
10904;SDS011;5505;51.450;9.254;2023-01-01T08:26:05;3.40;;;2.70;;
10904;SDS011;5505;51.450;9.254;2023-01-01T08:28:53;5.27;;;3.00;;
10904;SDS011;5505;51.450;9.254;2023-01-01T08:31:40;4.13;;;2.70;;
10904;SDS011;5505;51.450;9.254;2023-01-01T08:34:27;6.00;;;4.07;;
10904;SDS011;5505;51.450;9.254;2023-01-01T08:37:14;8.50;;;5.07;;
10904;SDS011;5505;51.450;9.254;2023-01-01T08:40:01;9.33;;;4.40;;
10904;SDS011;5505;51.450;9.254;2023-01-01T08:42:48;3.70;;;2.77;;
10904;SDS011;5505;51.450;9.254;2023-01-01T08:45:36;5.00;;;2.60;;
10904;SDS011;5505;51.450;9.254;2023-01-01T08:48:22;3.97;;;2.20;;
10904;SDS011;5505;51.450;9.254;2023-01-01T08:51:09;3.47;;;2.20;;
10904;SDS011;5505;51.450;9.254;2023-01-01T08:53:56;3.73;;;2.10;;
10904;SDS011;5505;51.450;9.254;2023-01-01T08:56:43;4.17;;;2.17;;
10904;SDS011;5505;51.450;9.254;2023-01-01T08:59:29;4.40;;;2.20;;
10904;SDS011;5505;51.450;9.254;2023-01-01T09:02:17;5.00;;;2.30;;
10904;SDS011;5505;51.450;9.254;2023-01-01T09:05:04;6.07;;;2.40;;
10904;SDS011;5505;51.450;9.254;2023-01-01T09:07:52;3.23;;;2.13;;
10904;SDS011;5505;51.450;9.254;2023-01-01T09:10:39;3.97;;;2.30;;
10904;SDS011;5505;51.450;9.254;2023-01-01T09:13:27;3.63;;;1.77;;
10904;SDS011;5505;51.450;9.254;2023-01-01T09:16:14;2.77;;;1.77;;
10904;SDS011;5505;51.450;9.254;2023-01-01T09:19:03;4.20;;;1.80;;
10904;SDS011;5505;51.450;9.254;2023-01-01T09:21:49;3.10;;;1.83;;
10904;SDS011;5505;51.450;9.254;2023-01-01T09:24:36;4.23;;;2.50;;
10904;SDS011;5505;51.450;9.254;2023-01-01T09:27:23;5.77;;;2.23;;
10904;SDS011;5505;51.450;9.254;2023-01-01T09:30:10;4.67;;;1.77;;
10904;SDS011;5505;51.450;9.254;2023-01-01T09:32:57;5.10;;;1.90;;
10904;SDS011;5505;51.450;9.254;2023-01-01T09:35:46;4.10;;;1.80;;
10904;SDS011;5505;51.450;9.254;2023-01-01T09:38:32;4.00;;;1.83;;
10904;SDS011;5505;51.450;9.254;2023-01-01T09:41:21;4.17;;;1.93;;
10904;SDS011;5505;51.450;9.254;2023-01-01T09:44:19;2.87;;;1.77;;
10904;SDS011;5505;51.450;9.254;2023-01-01T09:47:20;3.13;;;1.70;;
10904;SDS011;5505;51.450;9.254;2023-01-01T09:50:11;4.50;;;1.73;;
10904;SDS011;5505;51.450;9.254;2023-01-01T09:53:02;2.93;;;1.70;;
10904;SDS011;5505;51.450;9.254;2023-01-01T09:55:52;4.53;;;1.87;;
10904;SDS011;5505;51.450;9.254;2023-01-01T09:58:41;4.57;;;1.90;;
10904;SDS011;5505;51.450;9.254;2023-01-01T10:01:32;6.30;;;1.53;;
10904;SDS011;5505;51.450;9.254;2023-01-01T10:04:27;4.23;;;2.00;;
10904;SDS011;5505;51.450;9.254;2023-01-01T10:07:22;4.57;;;1.80;;
10904;SDS011;5505;51.450;9.254;2023-01-01T10:10:21;4.43;;;2.23;;
10904;SDS011;5505;51.450;9.254;2023-01-01T10:13:20;2.00;;;1.50;;
10904;SDS011;5505;51.450;9.254;2023-01-01T10:16:11;3.63;;;1.80;;
10904;SDS011;5505;51.450;9.254;2023-01-01T10:19:04;3.00;;;1.63;;
10904;SDS011;5505;51.450;9.254;2023-01-01T10:22:05;3.87;;;1.40;;
10904;SDS011;5505;51.450;9.254;2023-01-01T10:24:55;2.03;;;1.50;;
10904;SDS011;5505;51.450;9.254;2023-01-01T10:27:46;6.97;;;2.70;;
10904;SDS011;5505;51.450;9.254;2023-01-01T10:30:38;3.30;;;1.97;;
10904;SDS011;5505;51.450;9.254;2023-01-01T10:33:26;7.23;;;2.90;;
10904;SDS011;5505;51.450;9.254;2023-01-01T10:36:14;5.67;;;2.13;;
10904;SDS011;5505;51.450;9.254;2023-01-01T10:39:05;4.27;;;1.73;;
10904;SDS011;5505;51.450;9.254;2023-01-01T10:41:54;6.07;;;2.47;;
10904;SDS011;5505;51.450;9.254;2023-01-01T10:44:44;5.07;;;2.57;;
10904;SDS011;5505;51.450;9.254;2023-01-01T10:47:31;2.13;;;1.53;;
10904;SDS011;5505;51.450;9.254;2023-01-01T10:50:18;4.60;;;1.90;;
10904;SDS011;5505;51.450;9.254;2023-01-01T10:53:08;3.50;;;1.40;;
10904;SDS011;5505;51.450;9.254;2023-01-01T10:56:09;4.30;;;2.30;;
10904;SDS011;5505;51.450;9.254;2023-01-01T10:58:58;5.60;;;1.53;;
10904;SDS011;5505;51.450;9.254;2023-01-01T11:01:46;3.27;;;1.80;;
10904;SDS011;5505;51.450;9.254;2023-01-01T11:04:33;4.80;;;1.80;;
10904;SDS011;5505;51.450;9.254;2023-01-01T11:07:23;2.83;;;1.50;;
10904;SDS011;5505;51.450;9.254;2023-01-01T11:10:15;3.97;;;1.83;;
10904;SDS011;5505;51.450;9.254;2023-01-01T11:13:03;3.20;;;1.40;;
10904;SDS011;5505;51.450;9.254;2023-01-01T11:16:02;5.13;;;2.47;;
10904;SDS011;5505;51.450;9.254;2023-01-01T11:19:02;2.27;;;1.83;;
10904;SDS011;5505;51.450;9.254;2023-01-01T11:21:50;4.50;;;1.43;;
10904;SDS011;5505;51.450;9.254;2023-01-01T11:24:37;3.10;;;1.73;;
10904;SDS011;5505;51.450;9.254;2023-01-01T11:27:24;3.20;;;1.57;;
10904;SDS011;5505;51.450;9.254;2023-01-01T11:30:24;1.87;;;1.00;;
10904;SDS011;5505;51.450;9.254;2023-01-01T11:33:13;2.97;;;1.03;;
10904;SDS011;5505;51.450;9.254;2023-01-01T11:36:03;2.90;;;1.40;;
10904;SDS011;5505;51.450;9.254;2023-01-01T11:39:04;3.73;;;1.60;;
10904;SDS011;5505;51.450;9.254;2023-01-01T11:41:58;4.77;;;1.70;;
10904;SDS011;5505;51.450;9.254;2023-01-01T11:44:45;5.57;;;2.13;;
10904;SDS011;5505;51.450;9.254;2023-01-01T11:47:35;5.27;;;1.87;;
10904;SDS011;5505;51.450;9.254;2023-01-01T11:50:26;4.83;;;1.40;;
10904;SDS011;5505;51.450;9.254;2023-01-01T11:53:25;4.13;;;1.33;;
10904;SDS011;5505;51.450;9.254;2023-01-01T11:56:15;4.10;;;1.50;;
10904;SDS011;5505;51.450;9.254;2023-01-01T11:59:05;3.73;;;1.40;;
10904;SDS011;5505;51.450;9.254;2023-01-01T12:01:58;3.47;;;1.40;;
10904;SDS011;5505;51.450;9.254;2023-01-01T12:04:51;3.13;;;1.43;;
10904;SDS011;5505;51.450;9.254;2023-01-01T12:07:41;3.43;;;1.47;;
10904;SDS011;5505;51.450;9.254;2023-01-01T12:10:32;3.90;;;1.10;;
10904;SDS011;5505;51.450;9.254;2023-01-01T12:13:27;6.70;;;3.07;;
10904;SDS011;5505;51.450;9.254;2023-01-01T12:16:17;3.73;;;1.43;;
10904;SDS011;5505;51.450;9.254;2023-01-01T12:19:09;2.43;;;1.30;;
10904;SDS011;5505;51.450;9.254;2023-01-01T12:22:01;2.30;;;1.30;;
10904;SDS011;5505;51.450;9.254;2023-01-01T12:24:50;2.13;;;1.13;;
10904;SDS011;5505;51.450;9.254;2023-01-01T12:27:52;4.70;;;1.40;;
10904;SDS011;5505;51.450;9.254;2023-01-01T12:30:50;3.10;;;1.50;;
10904;SDS011;5505;51.450;9.254;2023-01-01T12:33:51;7.37;;;1.87;;
10904;SDS011;5505;51.450;9.254;2023-01-01T12:36:51;3.13;;;1.53;;
10904;SDS011;5505;51.450;9.254;2023-01-01T12:39:50;4.53;;;1.63;;
10904;SDS011;5505;51.450;9.254;2023-01-01T12:43:01;3.20;;;1.50;;
10904;SDS011;5505;51.450;9.254;2023-01-01T12:46:01;6.27;;;1.83;;
10904;SDS011;5505;51.450;9.254;2023-01-01T12:49:14;5.63;;;1.60;;
10904;SDS011;5505;51.450;9.254;2023-01-01T12:52:25;6.40;;;1.93;;
10904;SDS011;5505;51.450;9.254;2023-01-01T12:58:42;3.03;;;1.97;;
10904;SDS011;5505;51.450;9.254;2023-01-01T13:01:34;2.03;;;1.37;;
10904;SDS011;5505;51.450;9.254;2023-01-01T13:04:21;3.00;;;1.30;;
10904;SDS011;5505;51.450;9.254;2023-01-01T13:07:10;4.90;;;1.50;;
10904;SDS011;5505;51.450;9.254;2023-01-01T13:10:06;2.67;;;1.30;;
10904;SDS011;5505;51.450;9.254;2023-01-01T13:13:02;4.20;;;1.60;;
10904;SDS011;5505;51.450;9.254;2023-01-01T13:15:51;3.70;;;1.63;;
10904;SDS011;5505;51.450;9.254;2023-01-01T13:18:40;2.93;;;1.30;;
10904;SDS011;5505;51.450;9.254;2023-01-01T13:21:26;4.90;;;1.50;;
10904;SDS011;5505;51.450;9.254;2023-01-01T13:24:18;2.93;;;1.27;;
10904;SDS011;5505;51.450;9.254;2023-01-01T13:27:06;4.10;;;1.70;;
10904;SDS011;5505;51.450;9.254;2023-01-01T13:29:55;3.57;;;1.80;;
10904;SDS011;5505;51.450;9.254;2023-01-01T13:42:36;3.13;;;1.70;;
10904;SDS011;5505;51.450;9.254;2023-01-01T13:45:30;4.50;;;1.77;;
10904;SDS011;5505;51.450;9.254;2023-01-01T13:48:32;3.10;;;1.63;;
10904;SDS011;5505;51.450;9.254;2023-01-01T13:51:42;4.10;;;1.90;;
10904;SDS011;5505;51.450;9.254;2023-01-01T13:54:45;6.00;;;1.93;;
10904;SDS011;5505;51.450;9.254;2023-01-01T13:57:59;3.30;;;2.40;;
10904;SDS011;5505;51.450;9.254;2023-01-01T14:01:14;3.40;;;1.80;;
10904;SDS011;5505;51.450;9.254;2023-01-01T14:04:14;4.20;;;2.43;;
10904;SDS011;5505;51.450;9.254;2023-01-01T14:07:16;3.77;;;2.20;;
10904;SDS011;5505;51.450;9.254;2023-01-01T14:10:14;4.20;;;1.80;;
10904;SDS011;5505;51.450;9.254;2023-01-01T14:13:14;5.47;;;2.20;;
10904;SDS011;5505;51.450;9.254;2023-01-01T14:16:02;2.83;;;1.60;;
10904;SDS011;5505;51.450;9.254;2023-01-01T14:18:53;3.30;;;1.83;;
10904;SDS011;5505;51.450;9.254;2023-01-01T14:21:44;4.77;;;2.37;;
10904;SDS011;5505;51.450;9.254;2023-01-01T14:24:31;4.50;;;2.17;;
10904;SDS011;5505;51.450;9.254;2023-01-01T14:27:22;3.93;;;2.00;;
10904;SDS011;5505;51.450;9.254;2023-01-01T14:30:14;3.33;;;1.70;;
10904;SDS011;5505;51.450;9.254;2023-01-01T14:33:01;3.37;;;1.70;;
10904;SDS011;5505;51.450;9.254;2023-01-01T14:35:52;3.07;;;2.17;;
10904;SDS011;5505;51.450;9.254;2023-01-01T14:38:43;3.27;;;2.10;;
10904;SDS011;5505;51.450;9.254;2023-01-01T14:41:31;4.47;;;2.93;;
10904;SDS011;5505;51.450;9.254;2023-01-01T14:44:20;4.30;;;2.30;;
10904;SDS011;5505;51.450;9.254;2023-01-01T14:47:15;3.07;;;1.97;;
10904;SDS011;5505;51.450;9.254;2023-01-01T14:50:10;6.30;;;1.70;;
10904;SDS011;5505;51.450;9.254;2023-01-01T14:53:01;2.87;;;1.50;;
10904;SDS011;5505;51.450;9.254;2023-01-01T14:55:52;3.60;;;1.80;;
10904;SDS011;5505;51.450;9.254;2023-01-01T14:58:39;5.37;;;1.90;;
10904;SDS011;5505;51.450;9.254;2023-01-01T15:01:26;2.97;;;2.40;;
10904;SDS011;5505;51.450;9.254;2023-01-01T15:04:16;3.77;;;1.67;;
10904;SDS011;5505;51.450;9.254;2023-01-01T15:07:15;4.43;;;1.70;;
10904;SDS011;5505;51.450;9.254;2023-01-01T15:10:10;3.20;;;1.70;;
10904;SDS011;5505;51.450;9.254;2023-01-01T15:12:59;3.10;;;1.50;;
10904;SDS011;5505;51.450;9.254;2023-01-01T15:15:49;4.43;;;1.80;;
10904;SDS011;5505;51.450;9.254;2023-01-01T15:18:40;6.23;;;2.30;;
10904;SDS011;5505;51.450;9.254;2023-01-01T15:21:33;6.43;;;2.20;;
10904;SDS011;5505;51.450;9.254;2023-01-01T15:24:22;5.20;;;2.50;;
10904;SDS011;5505;51.450;9.254;2023-01-01T15:27:16;4.90;;;2.40;;
10904;SDS011;5505;51.450;9.254;2023-01-01T15:30:21;5.68;;;2.00;;
10904;SDS011;5505;51.450;9.254;2023-01-01T15:33:13;2.90;;;1.77;;
10904;SDS011;5505;51.450;9.254;2023-01-01T15:36:02;3.50;;;1.90;;
10904;SDS011;5505;51.450;9.254;2023-01-01T15:38:48;4.50;;;1.50;;
10904;SDS011;5505;51.450;9.254;2023-01-01T15:41:39;2.87;;;1.70;;
10904;SDS011;5505;51.450;9.254;2023-01-01T15:44:28;3.43;;;1.90;;
10904;SDS011;5505;51.450;9.254;2023-01-01T15:47:21;6.77;;;2.30;;
10904;SDS011;5505;51.450;9.254;2023-01-01T15:50:12;3.30;;;1.77;;
10904;SDS011;5505;51.450;9.254;2023-01-01T15:53:07;5.83;;;2.30;;
10904;SDS011;5505;51.450;9.254;2023-01-01T15:55:59;3.37;;;2.00;;
10904;SDS011;5505;51.450;9.254;2023-01-01T15:58:49;4.53;;;1.80;;
10904;SDS011;5505;51.450;9.254;2023-01-01T16:01:40;3.60;;;1.70;;
10904;SDS011;5505;51.450;9.254;2023-01-01T16:04:29;4.70;;;2.20;;
10904;SDS011;5505;51.450;9.254;2023-01-01T16:07:17;3.37;;;2.00;;
10904;SDS011;5505;51.450;9.254;2023-01-01T16:10:10;6.83;;;3.30;;
10904;SDS011;5505;51.450;9.254;2023-01-01T16:12:59;5.20;;;2.70;;
10904;SDS011;5505;51.450;9.254;2023-01-01T16:15:49;5.67;;;3.20;;
10904;SDS011;5505;51.450;9.254;2023-01-01T16:18:36;6.83;;;3.20;;
10904;SDS011;5505;51.450;9.254;2023-01-01T16:21:25;5.70;;;2.50;;
10904;SDS011;5505;51.450;9.254;2023-01-01T16:24:14;6.30;;;2.17;;
10904;SDS011;5505;51.450;9.254;2023-01-01T16:27:02;4.80;;;2.10;;
10904;SDS011;5505;51.450;9.254;2023-01-01T16:29:49;4.97;;;1.87;;
10904;SDS011;5505;51.450;9.254;2023-01-01T16:32:36;2.20;;;1.77;;
10904;SDS011;5505;51.450;9.254;2023-01-01T16:35:23;3.80;;;1.90;;
10904;SDS011;5505;51.450;9.254;2023-01-01T16:38:11;5.33;;;1.73;;
10904;SDS011;5505;51.450;9.254;2023-01-01T16:40:58;3.83;;;1.60;;
10904;SDS011;5505;51.450;9.254;2023-01-01T16:43:45;5.67;;;2.00;;
10904;SDS011;5505;51.450;9.254;2023-01-01T16:46:32;4.67;;;2.63;;
10904;SDS011;5505;51.450;9.254;2023-01-01T16:49:20;5.28;;;2.08;;
10904;SDS011;5505;51.450;9.254;2023-01-01T16:52:06;6.20;;;2.70;;
10904;SDS011;5505;51.450;9.254;2023-01-01T16:54:54;3.63;;;1.83;;
10904;SDS011;5505;51.450;9.254;2023-01-01T16:57:41;5.20;;;2.20;;
10904;SDS011;5505;51.450;9.254;2023-01-01T17:00:28;4.37;;;1.87;;
10904;SDS011;5505;51.450;9.254;2023-01-01T17:03:15;4.03;;;2.00;;
10904;SDS011;5505;51.450;9.254;2023-01-01T17:06:02;4.03;;;2.07;;
10904;SDS011;5505;51.450;9.254;2023-01-01T17:08:50;3.83;;;2.23;;
10904;SDS011;5505;51.450;9.254;2023-01-01T17:11:38;4.83;;;2.23;;
10904;SDS011;5505;51.450;9.254;2023-01-01T17:14:25;8.93;;;2.33;;
10904;SDS011;5505;51.450;9.254;2023-01-01T17:17:12;4.33;;;2.20;;
10904;SDS011;5505;51.450;9.254;2023-01-01T17:19:58;5.00;;;2.20;;
10904;SDS011;5505;51.450;9.254;2023-01-01T17:22:45;4.73;;;2.30;;
10904;SDS011;5505;51.450;9.254;2023-01-01T17:25:32;7.30;;;2.90;;
10904;SDS011;5505;51.450;9.254;2023-01-01T17:28:20;4.13;;;2.20;;
10904;SDS011;5505;51.450;9.254;2023-01-01T17:31:07;4.20;;;2.20;;
10904;SDS011;5505;51.450;9.254;2023-01-01T17:33:56;5.17;;;2.63;;
10904;SDS011;5505;51.450;9.254;2023-01-01T17:36:44;5.33;;;2.50;;